createdAt,value
2019-01-15T00:00:29.284Z,80.50
2019-01-15T00:03:01.451Z,80.10
2019-01-15T00:05:33.727Z,79.50
2019-01-15T00:08:06.188Z,79.10
2019-01-15T00:10:38.826Z,79.30
2019-01-15T00:13:11.703Z,79.60
2019-01-15T00:15:44.013Z,79.30
2019-01-15T00:18:17.596Z,78.60
2019-01-15T00:20:53.171Z,78.20
2019-01-15T00:23:25.539Z,78.10
2019-01-15T00:25:58.117Z,78.00
2019-01-15T00:28:30.654Z,77.20
2019-01-15T00:31:03.558Z,76.80
2019-01-15T00:33:35.825Z,76.30
2019-01-15T00:36:08.319Z,76.40
2019-01-15T00:38:40.475Z,76.60
2019-01-15T00:41:13.014Z,76.00
2019-01-15T00:43:45.239Z,76.00
2019-01-15T00:46:17.827Z,75.30
2019-01-15T00:48:50.160Z,75.10
2019-01-15T00:51:22.846Z,76.00
2019-01-15T00:53:55.159Z,75.90
2019-01-15T00:56:27.797Z,75.80
2019-01-15T00:59:00.108Z,75.80
2019-01-15T01:01:32.453Z,76.10
2019-01-15T01:04:05.123Z,75.70
2019-01-15T01:06:37.486Z,75.80
2019-01-15T01:09:13.355Z,75.70
2019-01-15T01:11:45.640Z,75.90
2019-01-15T01:14:18.180Z,75.60
2019-01-15T01:16:50.583Z,76.10
2019-01-15T01:19:22.950Z,75.50
2019-01-15T01:21:55.510Z,76.00
2019-01-15T01:24:28.198Z,76.10
2019-01-15T01:27:00.537Z,76.20
2019-01-15T01:29:33.610Z,75.60
2019-01-15T01:32:05.860Z,75.80
2019-01-15T01:34:38.640Z,76.20
2019-01-15T01:37:11.191Z,76.40
2019-01-15T01:39:43.701Z,76.40
2019-01-15T01:42:16.112Z,76.70
2019-01-15T01:44:48.557Z,76.10
2019-01-15T01:47:20.840Z,76.20
2019-01-15T01:49:53.264Z,76.10
2019-01-15T01:52:25.570Z,76.30
2019-01-15T01:54:58.005Z,75.00
2019-01-15T01:57:30.351Z,75.10
2019-01-15T02:00:02.597Z,74.80
2019-01-15T02:02:34.915Z,75.20
2019-01-15T02:05:08.415Z,74.80
2019-01-15T02:07:42.660Z,74.70
2019-01-15T02:10:36.319Z,75.00
2019-01-15T02:13:08.835Z,75.50
2019-01-15T02:15:44.169Z,75.20
2019-01-15T02:18:17.074Z,75.60
2019-01-15T02:20:59.794Z,75.20
2019-01-15T02:23:51.301Z,75.20
2019-01-15T02:26:23.517Z,75.50
2019-01-15T02:28:55.703Z,75.50
2019-01-15T02:31:28.400Z,75.50
2019-01-15T02:34:01.001Z,75.50
2019-01-15T02:36:33.761Z,75.60
2019-01-15T02:39:08.772Z,75.60
2019-01-15T02:41:41.187Z,75.60
2019-01-15T02:44:13.327Z,76.00
2019-01-15T02:46:45.799Z,76.30
2019-01-15T02:49:18.306Z,76.40
2019-01-15T02:51:50.702Z,76.80
2019-01-15T02:54:23.096Z,77.40
2019-01-15T02:56:55.489Z,77.20
2019-01-15T02:59:27.978Z,77.00
2019-01-15T03:02:00.028Z,76.70
2019-01-15T03:04:32.445Z,76.20
2019-01-15T03:07:04.922Z,76.30
2019-01-15T03:09:37.126Z,76.40
2019-01-15T03:12:09.418Z,76.50
2019-01-15T03:14:41.499Z,76.40
2019-01-15T03:17:13.637Z,76.30
2019-01-15T03:19:45.759Z,76.40
2019-01-15T03:22:18.939Z,76.40
2019-01-15T03:24:51.532Z,76.00
2019-01-15T03:27:24.810Z,76.00
2019-01-15T03:29:57.217Z,76.10
2019-01-15T03:32:29.492Z,76.50
2019-01-15T03:35:02.346Z,76.70
2019-01-15T03:37:34.566Z,77.00
2019-01-15T03:40:08.818Z,76.70
2019-01-15T03:42:41.473Z,77.00
2019-01-15T03:45:21.169Z,77.20
2019-01-15T03:47:53.751Z,77.30
2019-01-15T03:50:26.146Z,77.50
2019-01-15T03:52:59.034Z,77.80
2019-01-15T03:55:31.647Z,77.90
2019-01-15T03:58:03.792Z,78.40
2019-01-15T04:00:36.390Z,78.50
2019-01-15T04:03:08.711Z,78.60
2019-01-15T04:05:41.300Z,78.70
2019-01-15T04:08:13.980Z,78.70
2019-01-15T04:10:46.179Z,78.60
2019-01-15T04:13:18.766Z,79.00
2019-01-15T04:15:51.134Z,79.00
2019-01-15T04:18:23.993Z,79.10
2019-01-15T04:20:56.480Z,79.40
2019-01-15T04:23:29.322Z,79.60
2019-01-15T04:26:02.850Z,79.80
2019-01-15T04:28:35.279Z,79.80
2019-01-15T04:31:08.087Z,79.80
2019-01-15T04:33:40.542Z,79.60
2019-01-15T04:36:12.943Z,79.50
2019-01-15T04:38:45.400Z,79.70
2019-01-15T04:41:18.023Z,79.60
2019-01-15T04:43:50.546Z,79.70
2019-01-15T04:46:24.998Z,79.70
2019-01-15T04:48:57.484Z,80.00
2019-01-15T04:51:29.860Z,80.10
2019-01-15T04:54:02.306Z,79.80
2019-01-15T04:56:35.171Z,80.00
2019-01-15T04:59:08.289Z,80.00
2019-01-15T05:01:40.404Z,79.80
2019-01-15T05:04:12.549Z,79.80
2019-01-15T05:06:44.823Z,79.80
2019-01-15T05:09:17.231Z,79.90
2019-01-15T05:11:49.529Z,79.70
2019-01-15T05:14:22.122Z,79.70
2019-01-15T05:16:54.347Z,79.80
2019-01-15T05:19:27.229Z,79.90
2019-01-15T05:21:59.777Z,80.00
2019-01-15T05:24:31.889Z,79.80
2019-01-15T05:27:04.633Z,80.10
2019-01-15T05:29:37.150Z,80.10
2019-01-15T05:32:09.577Z,80.10
2019-01-15T05:34:42.043Z,80.10
2019-01-15T05:37:14.670Z,80.00
2019-01-15T05:39:47.153Z,80.30
2019-01-15T05:42:19.548Z,80.30
2019-01-15T05:44:52.424Z,80.20
2019-01-15T05:47:26.266Z,80.30
2019-01-15T05:49:58.489Z,80.10
2019-01-15T05:52:30.997Z,79.90
2019-01-15T05:55:03.344Z,80.00
2019-01-15T05:57:35.688Z,80.30
2019-01-15T06:00:09.030Z,80.40
2019-01-15T06:02:41.252Z,80.20
2019-01-15T06:05:14.260Z,79.80
2019-01-15T06:07:46.445Z,79.70
2019-01-15T06:10:18.853Z,79.80
2019-01-15T06:12:51.153Z,79.90
2019-01-15T06:15:23.553Z,80.10
2019-01-15T06:17:57.674Z,80.60
2019-01-15T06:20:29.697Z,80.40
2019-01-15T06:23:06.378Z,80.10
2019-01-15T06:25:38.540Z,80.00
2019-01-15T06:28:14.995Z,79.70
2019-01-15T06:30:47.633Z,79.80
2019-01-15T06:33:28.710Z,79.50
2019-01-15T06:36:01.253Z,79.40
2019-01-15T06:38:33.724Z,79.60
2019-01-15T06:41:05.969Z,79.40
2019-01-15T06:43:38.561Z,79.80
2019-01-15T06:46:10.679Z,79.90
2019-01-15T06:48:43.160Z,79.80
2019-01-15T06:51:15.507Z,79.90
2019-01-15T06:53:48.168Z,80.10
2019-01-15T06:56:20.196Z,80.40
2019-01-15T06:58:52.514Z,80.50
2019-01-15T07:01:24.980Z,80.60
2019-01-15T07:03:57.444Z,80.40
2019-01-15T07:06:29.763Z,80.50
2019-01-15T07:09:01.907Z,80.60
2019-01-15T07:11:34.126Z,80.40
2019-01-15T07:14:06.392Z,80.60
2019-01-15T07:16:39.209Z,80.70
2019-01-15T07:19:11.823Z,80.90
2019-01-15T07:21:44.155Z,81.10
2019-01-15T07:24:17.036Z,81.00
2019-01-15T07:26:49.216Z,81.00
2019-01-15T07:29:21.845Z,80.90
2019-01-15T07:31:54.204Z,80.90
2019-01-15T07:34:26.411Z,81.10
2019-01-15T07:36:59.020Z,81.30
2019-01-15T07:39:31.199Z,81.20
2019-01-15T07:42:03.512Z,81.60
2019-01-15T07:44:35.997Z,81.50
2019-01-15T07:47:09.048Z,81.40
2019-01-15T07:49:41.477Z,81.60
2019-01-15T07:52:13.794Z,81.60
2019-01-15T07:54:46.056Z,81.50
2019-01-15T07:57:18.172Z,81.30
2019-01-15T07:59:50.327Z,81.60
2019-01-15T08:02:22.665Z,81.80
2019-01-15T08:04:54.973Z,81.90
2019-01-15T08:07:27.732Z,82.00
2019-01-15T08:10:00.239Z,82.20
2019-01-15T08:12:32.861Z,82.40
2019-01-15T08:15:06.115Z,82.20
2019-01-15T08:17:38.486Z,82.60
2019-01-15T08:20:11.741Z,82.70
2019-01-15T08:22:44.110Z,82.90
2019-01-15T08:25:17.149Z,83.20
2019-01-15T08:27:49.611Z,83.40
2019-01-15T08:30:30.021Z,83.50
2019-01-15T08:33:02.349Z,83.70
2019-01-15T08:35:34.897Z,84.00
2019-01-15T08:38:07.867Z,84.20
2019-01-15T08:40:40.281Z,84.50
2019-01-15T08:43:12.894Z,84.90
2019-01-15T08:45:45.005Z,85.30
2019-01-15T08:48:19.684Z,85.70
2019-01-15T08:50:53.176Z,86.20
2019-01-15T08:53:26.149Z,86.80
2019-01-15T08:55:59.603Z,87.50
2019-01-15T08:58:31.752Z,88.10
2019-01-15T09:01:04.203Z,88.30
2019-01-15T09:03:36.473Z,88.80
2019-01-15T09:06:08.831Z,89.10
2019-01-15T09:08:41.456Z,89.10
2019-01-15T09:11:13.731Z,89.40
2019-01-15T09:13:46.105Z,89.60
2019-01-15T09:16:18.560Z,89.80
2019-01-15T09:18:50.943Z,90.00
2019-01-15T09:21:23.387Z,90.10
2019-01-15T09:23:55.517Z,90.10
2019-01-15T09:26:28.170Z,90.20
2019-01-15T09:29:00.672Z,90.40
2019-01-15T09:31:33.213Z,90.70
2019-01-15T09:34:05.566Z,91.00
2019-01-15T09:36:38.230Z,91.10
2019-01-15T09:39:11.887Z,91.20
2019-01-15T09:41:44.220Z,91.40
2019-01-15T09:44:16.435Z,91.60
2019-01-15T09:46:48.891Z,91.60
2019-01-15T09:49:21.149Z,91.80
2019-01-15T09:51:53.519Z,91.90
2019-01-15T09:54:25.625Z,92.00
2019-01-15T09:56:58.079Z,92.20
2019-01-15T09:59:30.239Z,92.20
2019-01-15T10:02:02.810Z,92.40
2019-01-15T10:04:35.006Z,92.60
2019-01-15T10:07:07.421Z,92.70
2019-01-15T10:09:39.615Z,92.70
2019-01-15T10:12:12.437Z,92.90
2019-01-15T10:14:44.698Z,93.30
2019-01-15T10:17:17.114Z,93.00
2019-01-15T10:19:49.509Z,92.90
2019-01-15T10:22:21.863Z,93.40
2019-01-15T10:24:54.516Z,93.20
2019-01-15T10:27:27.317Z,93.40
2019-01-15T10:30:02.654Z,93.50
2019-01-15T10:32:52.503Z,93.60
2019-01-15T10:35:53.611Z,93.60
2019-01-15T10:38:26.629Z,93.60
2019-01-15T10:40:59.535Z,93.70
2019-01-15T10:43:33.670Z,93.70
2019-01-15T10:46:06.800Z,93.80
2019-01-15T10:48:39.107Z,93.70
2019-01-15T10:51:11.338Z,93.80
2019-01-15T10:53:43.501Z,94.00
2019-01-15T10:56:15.567Z,93.90
2019-01-15T10:58:48.056Z,93.80
2019-01-15T11:01:20.427Z,93.80
2019-01-15T11:03:52.840Z,93.70
2019-01-15T11:06:25.148Z,93.60
2019-01-15T11:08:57.401Z,93.80
2019-01-15T11:11:29.571Z,93.80
2019-01-15T11:14:02.051Z,93.80
2019-01-15T11:16:34.589Z,93.70
2019-01-15T11:19:07.304Z,93.80
2019-01-15T11:21:39.763Z,93.80
2019-01-15T11:24:12.470Z,93.70
2019-01-15T11:26:45.801Z,93.70
2019-01-15T11:29:18.575Z,93.70
2019-01-15T11:31:51.228Z,93.80
2019-01-15T11:34:23.451Z,93.90
2019-01-15T11:36:55.730Z,93.90
2019-01-15T11:39:27.961Z,93.80
2019-01-15T11:42:00.128Z,94.00
2019-01-15T11:44:33.091Z,93.80
2019-01-15T11:47:05.599Z,93.70
2019-01-15T11:49:38.140Z,93.70
2019-01-15T11:52:10.327Z,93.70
2019-01-15T11:54:42.473Z,93.90
2019-01-15T11:57:14.597Z,93.90
2019-01-15T11:59:46.797Z,94.00
2019-01-15T12:02:25.347Z,93.90
2019-01-15T12:05:11.244Z,94.00
2019-01-15T12:08:00.296Z,93.80
2019-01-15T12:10:50.923Z,94.00
2019-01-15T12:13:35.284Z,94.00
2019-01-15T12:16:40.854Z,94.00
2019-01-15T12:19:37.104Z,94.00
2019-01-15T12:22:27.623Z,94.00
2019-01-15T12:25:19.981Z,94.00
2019-01-15T12:28:10.943Z,94.20
2019-01-15T12:30:55.211Z,94.30
2019-01-15T12:33:40.516Z,94.40
2019-01-15T12:36:41.812Z,94.50
2019-01-15T12:39:30.961Z,94.60
2019-01-15T12:42:45.037Z,94.50
2019-01-15T12:45:34.668Z,94.60
2019-01-15T12:48:35.720Z,94.70
2019-01-15T12:51:36.052Z,94.70
2019-01-15T12:54:21.273Z,94.70
2019-01-15T12:57:10.388Z,94.70
2019-01-15T12:59:59.367Z,94.70
2019-01-15T13:03:04.820Z,94.60
2019-01-15T13:05:53.932Z,94.60
2019-01-15T13:08:43.627Z,94.60
2019-01-15T13:11:34.317Z,94.60
2019-01-15T13:14:18.199Z,94.50
2019-01-15T13:17:09.867Z,94.50
2019-01-15T13:19:58.883Z,94.50
2019-01-15T13:22:57.410Z,94.50
2019-01-15T13:25:40.306Z,94.40
2019-01-15T13:28:29.145Z,94.40
2019-01-15T13:31:18.283Z,94.40
2019-01-15T13:34:14.743Z,94.20
2019-01-15T13:37:05.531Z,94.00
2019-01-15T13:40:02.539Z,93.50
2019-01-15T13:42:44.681Z,93.20
2019-01-15T13:45:44.010Z,92.30
2019-01-15T13:48:40.668Z,91.70
2019-01-15T13:51:27.804Z,91.20
2019-01-15T13:54:18.639Z,90.70
2019-01-15T13:57:07.568Z,90.70
2019-01-15T13:59:56.880Z,90.40
2019-01-15T14:02:48.401Z,89.30
2019-01-15T14:05:37.527Z,88.70
2019-01-15T14:08:26.276Z,87.60
2019-01-15T14:11:19.095Z,85.80
2019-01-15T14:14:07.771Z,86.00
2019-01-15T14:16:58.691Z,85.00
2019-01-15T14:19:49.188Z,83.60
2019-01-15T14:22:55.120Z,82.00
2019-01-15T14:25:37.868Z,82.20
2019-01-15T14:28:49.650Z,82.70
2019-01-15T14:31:38.782Z,83.00
2019-01-15T14:34:31.949Z,81.60
2019-01-15T14:37:25.628Z,81.70
2019-01-15T14:40:31.353Z,82.30
2019-01-15T14:43:40.308Z,82.10
2019-01-15T14:46:48.189Z,79.70
2019-01-15T14:49:38.885Z,78.50
2019-01-15T14:52:35.128Z,78.50
2019-01-15T14:55:32.126Z,79.40
2019-01-15T14:58:22.582Z,79.10
2019-01-15T15:01:11.583Z,79.20
2019-01-15T15:04:00.899Z,80.40
2019-01-15T15:06:54.678Z,79.50
2019-01-15T15:09:43.868Z,79.40
2019-01-15T15:12:34.530Z,78.40
2019-01-15T15:15:44.407Z,79.40
2019-01-15T15:18:33.108Z,78.90
2019-01-15T15:21:41.630Z,77.40
2019-01-15T15:24:34.857Z,79.10
2019-01-15T15:27:23.794Z,76.70
2019-01-15T15:30:12.961Z,77.00
2019-01-15T15:33:08.866Z,77.10
2019-01-15T15:36:17.182Z,77.90
2019-01-15T15:39:12.236Z,79.30
2019-01-15T15:42:05.706Z,78.00
2019-01-15T15:44:52.134Z,77.90
2019-01-15T15:47:34.137Z,78.00
2019-01-15T15:50:24.385Z,79.30
2019-01-15T15:53:21.501Z,79.90
2019-01-15T15:56:18.258Z,78.90
2019-01-15T15:59:09.232Z,77.30
2019-01-15T16:02:06.648Z,76.10
2019-01-15T16:05:09.057Z,76.70
2019-01-15T16:07:58.333Z,76.90
2019-01-15T16:10:43.310Z,77.70
2019-01-15T16:13:32.382Z,77.70
2019-01-15T16:16:34.960Z,78.90
2019-01-15T16:19:34.229Z,76.70
2019-01-15T16:22:23.449Z,74.50
2019-01-15T16:25:11.247Z,74.80
2019-01-15T16:28:04.526Z,73.70
2019-01-15T16:30:55.217Z,71.90
2019-01-15T16:33:48.942Z,72.20
2019-01-15T16:36:40.572Z,72.90
2019-01-15T16:39:18.678Z,75.50
2019-01-15T16:42:00.153Z,75.50
2019-01-15T16:45:02.586Z,74.10
2019-01-15T16:47:40.613Z,74.10
2019-01-15T16:50:36.873Z,73.10
2019-01-15T16:53:30.715Z,73.60
2019-01-15T16:56:19.689Z,71.90
2019-01-15T16:59:06.226Z,72.70
2019-01-15T17:01:59.343Z,72.00
2019-01-15T17:04:41.797Z,71.40
2019-01-15T17:07:41.329Z,71.80
2019-01-15T17:10:35.668Z,72.20
2019-01-15T17:13:26.499Z,71.60
2019-01-15T17:16:10.155Z,72.20
2019-01-15T17:18:55.094Z,70.60
2019-01-15T17:21:44.582Z,70.00
2019-01-15T17:24:38.224Z,72.60
2019-01-15T17:27:22.709Z,71.10
2019-01-15T17:30:19.438Z,70.40
2019-01-15T17:33:23.333Z,71.10
2019-01-15T17:36:16.767Z,74.30
2019-01-15T17:39:22.401Z,72.70
2019-01-15T17:42:09.383Z,72.70
2019-01-15T17:44:58.646Z,72.30
2019-01-15T17:47:47.680Z,74.10
2019-01-15T17:50:39.062Z,74.20
2019-01-15T17:53:39.477Z,72.00
2019-01-15T17:56:28.409Z,73.10
2019-01-15T17:59:17.391Z,72.20
2019-01-15T18:02:07.938Z,71.40
2019-01-15T18:08:16.816Z,73.40
2019-01-15T18:11:19.456Z,72.00
2019-01-15T18:14:10.029Z,71.50
2019-01-15T18:16:59.274Z,71.00
2019-01-15T18:19:48.521Z,71.50
2019-01-15T18:22:52.711Z,72.50
2019-01-15T18:25:53.973Z,71.40
2019-01-15T18:28:41.373Z,70.60
2019-01-15T18:31:35.227Z,72.00
2019-01-15T18:34:26.732Z,72.90
2019-01-15T18:37:16.743Z,73.50
2019-01-15T18:40:13.169Z,73.60
2019-01-15T18:43:15.789Z,72.20
2019-01-15T18:46:04.921Z,71.90
2019-01-15T18:49:07.390Z,71.80
2019-01-15T18:51:55.546Z,72.20
2019-01-15T18:54:45.019Z,73.20
2019-01-15T18:57:38.719Z,74.50
2019-01-15T19:00:44.627Z,75.20
2019-01-15T19:03:44.264Z,76.10
2019-01-15T19:06:38.031Z,75.20
2019-01-15T19:09:42.261Z,76.30
2019-01-15T19:12:31.204Z,76.30
2019-01-15T19:15:30.257Z,77.30
2019-01-15T19:18:18.957Z,78.60
2019-01-15T19:21:26.444Z,78.70
2019-01-15T19:24:14.706Z,78.70
2019-01-15T19:27:17.387Z,78.00
2019-01-15T19:30:14.096Z,79.20
2019-01-15T19:33:19.515Z,80.00
2019-01-15T19:36:15.727Z,79.70
2019-01-15T19:39:12.550Z,79.60
2019-01-15T19:42:01.749Z,79.60
2019-01-15T19:44:58.807Z,80.30
2019-01-15T19:47:56.782Z,79.70
2019-01-15T19:50:53.755Z,79.90
2019-01-15T19:53:35.624Z,81.70
2019-01-15T19:56:24.859Z,80.50
2019-01-15T19:59:15.605Z,80.80
2019-01-15T20:01:56.934Z,81.20
2019-01-15T20:04:38.272Z,81.40
2019-01-15T20:07:34.835Z,81.90
2019-01-15T20:10:23.887Z,82.30
2019-01-15T20:13:16.591Z,82.70
2019-01-15T20:16:11.383Z,82.60
2019-01-15T20:19:01.945Z,82.20
2019-01-15T20:22:07.432Z,83.40
2019-01-15T20:25:13.386Z,82.90
2019-01-15T20:28:00.809Z,83.80
2019-01-15T20:30:40.512Z,84.80
2019-01-15T20:33:29.439Z,85.70
2019-01-15T20:36:26.479Z,86.80
2019-01-15T20:39:17.216Z,86.90
2019-01-15T20:42:12.668Z,86.90
2019-01-15T20:45:01.753Z,87.40
2019-01-15T20:47:51.289Z,88.10
2019-01-15T20:50:48.241Z,88.40
2019-01-15T20:53:31.388Z,89.30
2019-01-15T20:56:31.944Z,90.00
2019-01-15T20:59:22.026Z,90.00
2019-01-15T21:02:07.752Z,90.20
2019-01-15T21:05:01.373Z,90.60
2019-01-15T21:07:52.437Z,90.40
2019-01-15T21:10:41.682Z,90.50
2019-01-15T21:13:43.839Z,90.30
2019-01-15T21:17:07.481Z,90.10
2019-01-15T21:20:05.893Z,90.60
2019-01-15T21:22:59.961Z,90.80
2019-01-15T21:25:54.335Z,91.00
2019-01-15T21:28:45.733Z,91.00
2019-01-15T21:31:41.358Z,91.10
2019-01-15T21:34:39.261Z,91.40
2019-01-15T21:38:08.025Z,92.00
2019-01-15T21:40:55.026Z,92.20
2019-01-15T21:43:48.893Z,92.40
2019-01-15T21:46:38.196Z,92.50
2019-01-15T21:49:34.794Z,92.80
2019-01-15T21:52:30.446Z,93.00
2019-01-15T21:55:19.341Z,93.10
2019-01-15T21:58:12.274Z,93.20
2019-01-15T22:01:16.408Z,93.30
2019-01-15T22:04:13.325Z,93.40
2019-01-15T22:07:18.883Z,93.60
2019-01-15T22:10:12.404Z,93.60
2019-01-15T22:13:05.861Z,93.70
2019-01-15T22:15:56.751Z,93.60
2019-01-15T22:18:44.229Z,93.50
2019-01-15T22:21:43.846Z,93.60
2019-01-15T22:24:40.512Z,93.80
2019-01-15T22:27:29.406Z,93.80
2019-01-15T22:30:19.817Z,94.00
2019-01-15T22:33:11.254Z,94.00
2019-01-15T22:36:16.985Z,93.90
2019-01-15T22:39:06.067Z,94.00
2019-01-15T22:41:51.217Z,93.90
2019-01-15T22:44:42.355Z,93.60
2019-01-15T22:47:35.574Z,93.50
2019-01-15T22:50:26.050Z,93.50
2019-01-15T22:53:17.992Z,93.80
2019-01-15T22:56:00.087Z,94.00
2019-01-15T22:58:51.015Z,94.30
2019-01-15T23:01:59.292Z,94.40
2019-01-15T23:04:44.118Z,94.50
2019-01-15T23:07:43.664Z,94.40
2019-01-15T23:10:37.190Z,94.40
2019-01-15T23:13:21.859Z,94.30
2019-01-15T23:16:05.543Z,94.30
2019-01-15T23:19:11.695Z,94.50
2019-01-15T23:22:02.428Z,94.50
2019-01-15T23:24:55.684Z,94.50
2019-01-15T23:27:48.719Z,94.40
2019-01-15T23:30:39.177Z,94.40
2019-01-15T23:33:47.820Z,94.30
2019-01-15T23:36:38.633Z,94.20
2019-01-15T23:39:42.082Z,94.00
2019-01-15T23:42:41.263Z,94.00
2019-01-15T23:45:31.897Z,94.20
2019-01-15T23:48:30.709Z,94.40
2019-01-15T23:51:19.711Z,94.50
2019-01-15T23:54:10.198Z,94.50
2019-01-15T23:57:03.479Z,94.60
2019-01-15T23:59:52.587Z,94.60
